Weather observations for the past three days for
Broomfield / Jeffco
| Date | Time (mdt) | Wind (mph) | Vis. (mi.) | Weather | Sky Cond. | Temperature (ºF) | Relative Humidity | Wind Chill (°F) | Heat Index (°F) | Pressure | Precipitation (in) | ||||||
|---|---|---|---|---|---|---|---|---|---|---|---|---|---|---|---|---|---|
| Air | Dwpt | 6 hour | altimeter (in) | sea level (mb) | 1 hr | 3 hr | 6 hr | ||||||||||
| Max. | Min. | ||||||||||||||||
| 09 | 06:45 | W 18 | 10.00 | Fair | CLR | 60.8 | 28.4 | 29% | 29.95 | 0.0 | |||||||
| 09 | 06:15 | W 5 | 10.00 | Fair | CLR | 59 | 28.4 | 31% | 29.95 | 0.0 | |||||||
| 09 | 05:55 | W 6 | 10.00 | Fair | CLR | 60.8 | 26.6 | 27% | 29.94 | 0.0 | |||||||
| 09 | 05:35 | W 7 | 10.00 | Fair | CLR | 60.8 | 26.6 | 27% | 29.94 | 0.0 | |||||||
| 09 | 05:15 | W 12 | 10.00 | Fair | CLR | 62.6 | 26.6 | 25% | 29.93 | 0.0 | |||||||
| 09 | 04:55 | NW 13 | 10.00 | Fair | CLR | 60.8 | 28.4 | 29% | 29.93 | 0.0 | |||||||
| 09 | 04:35 | W 15 | 10.00 | Fair | CLR | 60.8 | 28.4 | 29% | 29.92 | 0.0 | |||||||
| 09 | 04:15 | W 14 | 10.00 | Fair | CLR | 60.8 | 28.4 | 29% | 29.92 | 0.0 | |||||||
| 09 | 03:55 | W 15 | 10.00 | Fair | CLR | 57.2 | 32 | 39% | 29.93 | 0.0 | |||||||
| 09 | 03:35 | Calm | 10.00 | Fair | CLR | 55.4 | 33.8 | 44% | 29.93 | 0.0 | |||||||
| 09 | 03:15 | Calm | 10.00 | Fair | CLR | 51.8 | 37.4 | 58% | 29.92 | 0.0 | |||||||
| 09 | 02:55 | Calm | 10.00 | Fair | CLR | 51.8 | 37.4 | 58% | 29.92 | 0.0 | |||||||
| 09 | 02:35 | NW 3 | 10.00 | Fair | CLR | 51.8 | 37.4 | 58% | 29.91 | 0.0 | |||||||
| 09 | 02:15 | Calm | 10.00 | Fair | CLR | 53.6 | 37.4 | 54% | 29.92 | 0.0 | |||||||
| 09 | 01:55 | SE 3 | 10.00 | Fair | CLR | 53.6 | 37.4 | 54% | 29.92 | 0.0 | |||||||
| 09 | 01:35 | NW 9 | 10.00 | Fair | CLR | 53.6 | 37.4 | 54% | 29.93 | 0.0 | |||||||
| 09 | 01:15 | W 5 | 10.00 | Fair | CLR | 53.6 | 37.4 | 54% | 29.93 | 0.0 | |||||||
| 09 | 00:55 | W 6 | 10.00 | Fair | CLR | 53.6 | 37.4 | 54% | 29.93 | 0.0 | |||||||
| 09 | 00:15 | S 6 | 10.00 | Fair | CLR | 55.4 | 37.4 | 51% | 29.94 | 0.0 | |||||||
| 08 | 23:55 | S 7 | 10.00 | Fair | CLR | 55.4 | 39.2 | 55% | 29.95 | 0.0 | |||||||
| 08 | 23:35 | S 7 | 10.00 | Fair | CLR | 55.4 | 39.2 | 55% | 29.96 | 0.0 | |||||||
| 08 | 23:15 | S 9 | 10.00 | Fair | CLR | 55.4 | 39.2 | 55% | 29.96 | 0.0 | |||||||
| 08 | 22:55 | S 8 | 10.00 | Fair | CLR | 57.2 | 37.4 | 48% | 29.97 | 0.0 | |||||||
| 08 | 22:35 | S 6 | 10.00 | Partly Cloudy | SCT120 | 57.2 | 37.4 | 48% | 29.98 | 0.0 | |||||||
| 08 | 22:15 | S 6 | 10.00 | Partly Cloudy | SCT120 | 59 | 37.4 | 45% | 29.99 | 0.0 | |||||||
| 08 | 21:55 | S 6 | 10.00 | Fair | CLR | 59 | 35.6 | 42% | 29.99 | 0.0 | |||||||
| 08 | 21:35 | S 5 | 10.00 | Partly Cloudy | SCT120 | 59 | 35.6 | 42% | 30 | 0.0 | |||||||
| 08 | 21:15 | SE 5 | 10.00 | Fair | CLR | 60.8 | 35.6 | 39% | 29.99 | 0.0 | |||||||
| 08 | 20:55 | E 7 | 10.00 | Fair | CLR | 60.8 | 35.6 | 39% | 29.99 | 0.0 | |||||||
| 08 | 20:35 | E 7 | 10.00 | Partly Cloudy | SCT120 | 60.8 | 35.6 | 39% | 29.98 | 0.0 | |||||||
| 08 | 20:15 | E 7 | 10.00 | Fair | CLR | 60.8 | 35.6 | 39% | 29.97 | 0.0 | |||||||
| 08 | 19:50 | E 8 | 10.00 | Partly Cloudy | SCT100 | 62.6 | 35.6 | 37% | 29.97 | 0.0 | |||||||
| 08 | 18:54 | SE 6 | 10.00 | A Few Clouds | FEW100 | 68 | 35.6 | 30% | 29.97 | 0.0 | |||||||
| 08 | 17:47 | Calm | 10.00 | A Few Clouds | FEW100 | 69.8 | 35.6 | 29% | 29.97 | 0.0 | |||||||
| 08 | 16:58 | SE 3 | 10.00 | Fair | CLR | 69.8 | 35.6 | 29% | 29.97 | 0.0 | |||||||
| 08 | 15:48 | E 10 | 10.00 | Fair | CLR | 69.8 | 37.4 | 31% | 29.98 | 0.0 | |||||||
| 08 | 14:45 | E 5 | 10.00 | Fair | CLR | 66.2 | 37.4 | 35% | 30 | 0.0 | |||||||
| 08 | 13:46 | SE 8 G 16 | 10.00 | Fair | CLR | 66.2 | 37.4 | 35% | 30.02 | 0.0 | |||||||
| 08 | 12:50 | NE 12 | 10.00 | Fair | CLR | 62.6 | 37.4 | 39% | 30.03 | 0.0 | |||||||
| 08 | 11:45 | NE 6 | 10.00 | Fair | CLR | 62.6 | 37.4 | 39% | 30.05 | 0.0 | |||||||
| 08 | 10:56 | NE 8 | 10.00 | Partly Cloudy | SCT130 | 60.8 | 37.4 | 42% | 30.06 | 0.0 | |||||||
| 08 | 09:54 | SE 9 | 10.00 | Partly Cloudy | SCT110 | 55.4 | 41 | 59% | 30.06 | 0.0 | |||||||
| 08 | 08:45 | S 9 | 10.00 | Fair | CLR | 55.4 | 42.8 | 63% | 30.06 | 0.0 | |||||||
| 08 | 07:50 | S 6 | 10.00 | Fair | CLR | 51.8 | 42.8 | 72% | 30.07 | 0.0 | |||||||
| 08 | 06:45 | NW 6 | 10.00 | Mostly Cloudy | BKN034 | 46.4 | 42.8 | 87% | 44 | 30.08 | 0.0 | ||||||
| 08 | 06:15 | N 8 | 10.00 | Mostly Cloudy | BKN030 BKN120 | 44.6 | 42.8 | 93% | 41 | 30.07 | 0.0 | ||||||
| 08 | 05:55 | NW 3 | 10.00 | Mostly Cloudy | BKN030 BKN120 | 44.6 | 41 | 87% | 30.04 | 0.0 | |||||||
| 08 | 05:35 | NW 6 | 10.00 | Mostly Cloudy | BKN030 BKN120 | 44.6 | 41 | 87% | 42 | 30.04 | 0.0 | ||||||
| 08 | 04:55 | N 8 | 10.00 | Fair | CLR | 44.6 | 41 | 87% | 41 | 30.03 | 0.0 | ||||||
| 08 | 04:35 | NE 7 | 10.00 | Fair | CLR | 44.6 | 41 | 87% | 41 | 30.02 | 0.0 | ||||||
| 08 | 04:15 | N 6 | 10.00 | Fair | CLR | 44.6 | 41 | 87% | 42 | 30.02 | 0.0 | ||||||
| 08 | 03:55 | W 5 | 10.00 | Partly Cloudy | SCT100 | 42.8 | 39.2 | 87% | 41 | 30.01 | 0.0 | ||||||
| 08 | 03:35 | W 3 | 10.00 | Partly Cloudy | SCT110 | 44.6 | 41 | 87% | 30 | 0.0 | |||||||
| 08 | 03:15 | Calm | 10.00 | Partly Cloudy | SCT110 | 46.4 | 42.8 | 87% | 30.01 | 0.0 | |||||||
| 08 | 02:55 | N 5 | 10.00 | Fair | CLR | 46.4 | 42.8 | 87% | 45 | 30.01 | 0.0 | ||||||
| 08 | 02:35 | N 7 | 10.00 | Fair | CLR | 46.4 | 42.8 | 87% | 43 | 30.02 | 0.0 | ||||||
| 08 | 02:15 | NE 9 | 10.00 | Mostly Cloudy | BKN095 | 46.4 | 42.8 | 87% | 42 | 30.02 | 0.0 | ||||||
| 08 | 01:55 | N 5 | 10.00 | Mostly Cloudy | BKN095 | 48.2 | 42.8 | 82% | 47 | 30.03 | 0.0 | ||||||
| 08 | 01:35 | N 7 | 10.00 | Fair | CLR | 48.2 | 42.8 | 82% | 46 | 30.04 | 0.0 | ||||||
| 08 | 01:15 | N 7 | 10.00 | Fair | CLR | 46.4 | 42.8 | 87% | 43 | 30.04 | 0.0 | ||||||
| 08 | 00:55 | Calm | 10.00 | Fair | CLR | 46.4 | 42.8 | 87% | 30.02 | 0.0 | |||||||
| 08 | 00:35 | SW 3 | 10.00 | Fair | CLR | 50 | 41 | 71% | 30.03 | 0.0 | |||||||
| 08 | 00:15 | Calm | 10.00 | Partly Cloudy | SCT060 SCT070 | 50 | 42.8 | 76% | 30.02 | 0.0 | |||||||
| 07 | 23:55 | NE 7 | 10.00 | Light Rain | SCT050 BKN060 OVC080 | 51.8 | 42.8 | 72% | 30.01 | 0.0 | |||||||
| 07 | 23:35 | NW 14 | 10.00 | Overcast | SCT055 BKN080 OVC110 | 53.6 | 39.2 | 58% | 30.05 | 0.0 | |||||||
| 07 | 23:15 | Calm | 10.00 | Mostly Cloudy | BKN110 | 53.6 | 37.4 | 54% | 30.01 | 0.0 | |||||||
| 07 | 22:55 | NE 6 | 10.00 | Partly Cloudy | SCT110 | 53.6 | 37.4 | 54% | 30 | 0.0 | |||||||
| 07 | 22:35 | NE 10 | 10.00 | Mostly Cloudy | SCT060 SCT070 BKN110 | 53.6 | 37.4 | 54% | 30 | 0.0 | |||||||
| 07 | 22:15 | N 10 | 10.00 | Light Rain | SCT060 BKN080 OVC110 | 55.4 | 37.4 | 51% | 30.02 | 0.0 | |||||||
| 07 | 21:55 | NE 12 | 10.00 | Mostly Cloudy | BKN110 | 55.4 | 35.6 | 47% | 30 | 0.0 | |||||||
| 07 | 21:35 | E 5 | 10.00 | Overcast | OVC110 | 57.2 | 33.8 | 41% | 29.99 | 0.0 | |||||||
| 07 | 21:15 | Calm | 10.00 | Overcast | OVC100 | 59 | 32 | 36% | 29.99 | 0.0 | |||||||
| 07 | 20:55 | Calm | 10.00 | Overcast | OVC110 | 57.2 | 33.8 | 41% | 29.98 | 0.0 | |||||||
| 07 | 20:35 | W 7 | 10.00 | Overcast | OVC110 | 55.4 | 35.6 | 47% | 29.97 | 0.0 | |||||||
| 07 | 20:15 | Calm | 10.00 | Mostly Cloudy | BKN100 | 60.8 | 32 | 34% | 29.97 | 0.0 | |||||||
| 07 | 19:45 | NE 10 | 10.00 | Mostly Cloudy | SCT050 BKN080 | 59 | 35.6 | 42% | 29.96 | 0.0 | |||||||
| 07 | 18:49 | S 6 | 10.00 | Mostly Cloudy | BKN110 | 64.4 | 26.6 | 24% | 29.93 | 0.0 | |||||||
| 07 | 17:49 | Calm | 10.00 | Mostly Cloudy | BKN110 | 68 | 23 | 18% | 29.92 | 0.0 | |||||||
| 07 | 16:45 | Calm | 10.00 | Partly Cloudy | SCT110 | 66.2 | 24.8 | 21% | 29.93 | 0.0 | |||||||
| 07 | 15:45 | W 8 | 10.00 | Partly Cloudy | SCT110 | 68 | 26.6 | 21% | 29.96 | 0.0 | |||||||
| 07 | 14:46 | W 8 | 10.00 | Fair | CLR | 66.2 | 26.6 | 22% | 29.99 | 0.0 | |||||||
| 07 | 13:50 | NW 7 G 20 | 10.00 | Fair | CLR | 64.4 | 28.4 | 26% | 30 | 0.0 | |||||||
| 07 | 12:50 | W 8 G 20 | 10.00 | Fair | CLR | 62.6 | 28.4 | 27% | 30.02 | 0.0 | |||||||
| 07 | 11:49 | W 17 | 10.00 | Fair | CLR | 57.2 | 30.2 | 36% | 30.01 | 0.0 | |||||||
| 07 | 10:49 | SE 7 | 10.00 | Fair | CLR | 57.2 | 33.8 | 41% | 30.03 | 0.0 | |||||||
| 07 | 09:49 | NW 15 | 10.00 | Fair | CLR | 57.2 | 30.2 | 36% | 30.04 | 0.0 | |||||||
| 07 | 08:45 | E 6 | 10.00 | Fair | CLR | 51.8 | 30.2 | 44% | 30.04 | 0.0 | |||||||
| 07 | 07:45 | Calm | 10.00 | Fair | CLR | 51.8 | 24.8 | 35% | 30.04 | 0.0 | |||||||
| 07 | 06:15 | W 10 | 10.00 | Fair | CLR | 44.6 | 24.8 | 46% | 40 | 30.01 | 0.0 | ||||||
| 07 | 05:55 | W 8 | 10.00 | Fair | CLR | 44.6 | 24.8 | 46% | 41 | 30.02 | 0.0 | ||||||
| 07 | 05:35 | SW 8 | 10.00 | Fair | CLR | 42.8 | 24.8 | 49% | 39 | 30.02 | 0.0 | ||||||
| 07 | 05:15 | W 7 | 10.00 | Fair | CLR | 44.6 | 23 | 43% | 41 | 30.01 | 0.0 | ||||||
| 07 | 04:55 | SW 5 | 10.00 | Fair | CLR | 42.8 | 23 | 46% | 41 | 30.02 | 0.0 | ||||||
| 07 | 04:35 | SW 8 | 10.00 | Fair | CLR | 44.6 | 21.2 | 39% | 41 | 30.01 | 0.0 | ||||||
| 07 | 04:15 | S 7 | 10.00 | Fair | CLR | 42.8 | 23 | 46% | 39 | 30.02 | 0.0 | ||||||
| 07 | 03:55 | Calm | 10.00 | Fair | CLR | 44.6 | 21.2 | 39% | 30.02 | 0.0 | |||||||
| 07 | 03:35 | SW 3 | 10.00 | Fair | CLR | 42.8 | 21.2 | 42% | 30.03 | 0.0 | |||||||
| 07 | 03:15 | W 6 | 10.00 | Fair | CLR | 42.8 | 21.2 | 42% | 40 | 30.02 | 0.0 | ||||||
| 07 | 02:55 | W 6 | 10.00 | Fair | CLR | 42.8 | 21.2 | 42% | 40 | 30.03 | 0.0 | ||||||
| 07 | 02:35 | Calm | 10.00 | Fair | CLR | 42.8 | 19.4 | 39% | 30.03 | 0.0 | |||||||
| 07 | 02:15 | SW 6 | 10.00 | Fair | CLR | 42.8 | 21.2 | 42% | 40 | 30.03 | 0.0 | ||||||
| 07 | 01:55 | W 9 | 10.00 | Fair | CLR | 42.8 | 19.4 | 39% | 38 | 30.04 | 0.0 | ||||||
| 07 | 01:35 | W 6 | 10.00 | Fair | CLR | 37.4 | 23 | 56% | 33 | 30.05 | 0.0 | ||||||
| 07 | 01:15 | SW 6 | 10.00 | Fair | CLR | 37.4 | 26.6 | 65% | 33 | 30.05 | 0.0 | ||||||
| 07 | 00:55 | SW 5 | 10.00 | Fair | CLR | 37.4 | 24.8 | 60% | 34 | 30.06 | 0.0 | ||||||
| 07 | 00:35 | SW 8 | 10.00 | Fair | CLR | 37.4 | 28.4 | 70% | 32 | 30.06 | 0.0 | ||||||
| 07 | 00:15 | S 8 | 10.00 | Fair | CLR | 39.2 | 28.4 | 65% | 34 | 30.06 | 0.0 | ||||||
| 06 | 23:55 | SW 8 | 10.00 | Fair | CLR | 35.6 | 30.2 | 81% | 30 | 30.06 | 0.0 | ||||||
| 06 | 23:35 | W 14 G 17 | 10.00 | Fair | CLR | 33.8 | 32 | 93% | 25 | 30.06 | 0.0 | ||||||
| 06 | 23:15 | W 5 | 10.00 | Fair | CLR | 32 | 30.2 | 93% | 28 | 30.07 | 0.0 | ||||||
| 06 | 22:55 | W 3 | 10.00 | Fair | CLR | 32 | 30.2 | 93% | 30.07 | 0.0 | |||||||
| 06 | 22:35 | W 6 | 10.00 | Fair | CLR | 32 | 28.4 | 87% | 27 | 30.07 | 0.0 | ||||||
| 06 | 22:15 | W 6 | 10.00 | Fair | CLR | 32 | 30.2 | 93% | 27 | 30.08 | 0.0 | ||||||
| 06 | 21:55 | W 3 | 10.00 | Fair | CLR | 33.8 | 30.2 | 87% | 30.08 | 0.0 | |||||||
| 06 | 21:35 | S 3 | 10.00 | Fair | CLR | 35.6 | 30.2 | 81% | 30.08 | 0.0 | |||||||
| 06 | 21:15 | S 5 | 10.00 | Fair | CLR | 35.6 | 30.2 | 81% | 32 | 30.08 | 0.0 | ||||||
| 06 | 20:55 | S 6 | 10.00 | Fair | CLR | 35.6 | 30.2 | 81% | 31 | 30.08 | 0.0 | ||||||
| 06 | 20:35 | S 7 | 10.00 | Fair | CLR | 35.6 | 30.2 | 81% | 31 | 30.07 | 0.0 | ||||||
| 06 | 20:15 | S 9 | 10.00 | Fair | CLR | 35.6 | 30.2 | 81% | 29 | 30.06 | 0.0 | ||||||
| 06 | 19:45 | Vrbl 3 | 10.00 | Fair | CLR | 37.4 | 30.2 | 75% | 30.06 | 0.0 | |||||||
| 06 | 18:45 | Vrbl 3 | 10.00 | Fair | CLR | 39.2 | 28.4 | 65% | 30.08 | 0.0 | |||||||
| 06 | 17:45 | Vrbl 3 | 10.00 | A Few Clouds | FEW060 | 37.4 | 28.4 | 70% | 30.09 | 0.0 | |||||||
| 06 | 16:45 | S 7 | 10.00 | Mostly Cloudy | SCT020 BKN040 | 37.4 | 28.4 | 70% | 33 | 30.1 | 0.0 | ||||||
| 06 | 15:45 | S 8 | 10.00 | Mostly Cloudy | BKN022 | 35.6 | 28.4 | 75% | 30 | 30.12 | 0.0 | ||||||
| 06 | 14:48 | Calm | 10.00 | Overcast | OVC022 | 35.6 | 26.6 | 70% | 30.13 | 0.0 | |||||||
| 06 | 13:45 | Calm | 10.00 | Mostly Cloudy | BKN013 BKN015 | 35.6 | 28.4 | 75% | 30.14 | 0.0 | |||||||
| 06 | 12:45 | Calm | 6.00 | Fog/Mist | OVC010 OVC015 | 33.8 | 30.2 | 87% | 30.16 | 0.0 | |||||||
| 06 | 11:50 | NE 6 | 1.50 | Light Snow Fog/Mist | OVC006 | 32 | 28.4 | 87% | 27 | 30.17 | 0.0 | ||||||
| 06 | 10:52 | NE 14 | 1.00 | Snow | OVC004 | 32 | 30.2 | 93% | 23 | 30.15 | 0.0 | ||||||
| 06 | 09:50 | N 14 | 1.00 | Light Snow Fog/Mist | OVC004 | 32 | 30.2 | 93% | 23 | 30.12 | 0.0 | ||||||
| 06 | 08:50 | N 10 | 1.00 | Snow | OVC004 | 32 | 32 | 100% | 24 | 30.11 | 0.0 | ||||||
| 06 | 07:50 | N 12 | 0.75 | Snow | OVC004 | 32 | 32 | 100% | 24 | 30.1 | 0.0 | ||||||
| 06 | 06:58 | Calm | 0.75 | Snow | OVC004 | 32 | 32 | 100% | 30.08 | 0.0 | |||||||
| Date | Time (mdt) | Wind (mph) | Vis. (mi.) | Weather | Sky Cond. | Air | Dwpt | Max. | Min. | Relative Humidity | Wind Chill (°F) | Heat Index (°F) | altimeter (in) | sea level (mb) | 1 hr | 3 hr | 6 hr |
| 6 hour | |||||||||||||||||
| Temperature (ºF) | Pressure | Precipitation (in) | |||||||||||||||